Terminal Aerodrome Forecast
Issued by NWS

Home | Current Version | Previous Version | Text Only | Print | Product List | Glossary On
Versions: 1 2 3 4 5 6 7 8 9 10 11 12 13 14 15 16
000
FTUS42 KTAE 230500
TAFECP
TAF
KECP 230537Z 2306/2406 07007KT P6SM -RA BKN007 BKN010 OVC026
     FM230900 13014G22KT 4SM -RA BR VCTS OVC005CB
     FM231600 18015G25KT P6SM VCTS SCT035CB BKN100
     FM231900 19015G25KT 4SM TSRA BKN030CB BKN100
      TEMPO 2319/2321 VRB20G30KT 2SM +TSRA BKN025CB
     FM240100 20011KT P6SM OVC015=

USA.gov is the U.S. government's official web portal to all federal, state and local government web resources and services.